Seinäjoki, Suomi

21. kesäkuuta 2018 klo 09:37 (EEST) (GMT +0300)
Kasperi Seinajoki | | Change Station

Kork 182 ft 62.77 °N, 22.87 °E | Updated 1 minute ago

Selkeää
Selkeää
60.4 °F
Tuntuu kuin 60.4 °F
N
4
Tuuli Suunnaltaan vaihteleva Tuuli ilmansuunnasta Lännen ja lounaan välinen
Gusts 6.0 mph

Tänään
Korkea -- | Matala -- °F
--% Sateen mahd.
Eilen
Korkea -- | Matala -- °F
Precip. -- tuumaa
Ilmanpaine 29.62 tuumaa
Näkyvyys -9999.0 mailia
Pilviä
Kastepiste 42 °F
Ilmankosteus 50%
Sademäärä 0.00 tuumaa
Lumensyvyys Ei saatavilla
3:25 AM 11:35 PM
Ensimmäinen neljännes, 59% visible
METAR EFVA 210620Z AUTO VRB02KT CAVOK 15/05 Q1003
Ilmanpaine 29.62 tuumaa
Näkyvyys -9999.0 mailia
Pilviä
Kastepiste 42 °F
Ilmankosteus 50%
Sademäärä 0.00 tuumaa
Lumensyvyys Ei saatavilla
3:25 AM 11:35 PM
Ensimmäinen neljännes, 59% visible
METAR EFVA 210620Z AUTO VRB02KT CAVOK 15/05 Q1003

Get Severe Weather Alerts

Thanks for signing up!

Be on the lookout for a verification email in your inbox.

You'll start receiving the daily forecast at 6 AM.

×

10-Day Weather Forecast

×

Almanac

Tähtitiede

Jun. 21, 2018 Nousuaika Laskuaika
Valoisa aika
Porvarillinen hämärä
Nauttinen hämärä
Astronominen hämärä
Kuu
Näkyvän valon pituus
Päivän pituus
Tomorrow will be .
, % of the Moon is Illuminated

Tämän päivän ennätykset

Country Highs Country Lows

Community

WunderPhotos

Category 6

Welcome to Category 6. This is the collective home for Weather Underground's featured writeups by Dr. Jeff Masters (right), Bob Henson (left), Chris Burt, and other regular contributors.

Nearby

Ilmanlaatu

  Ilmanlaatu AQ Index Pollutant
Not available.

Lumensyvyys

Station Depth Korkeus

Maanjäristysaktiivisuus

Paikkakunta Distance Mag. Time & Date
Minimum magnitude displayed is 2.5.

Coastal Water Temperatures

Paikka Lämpötila

Stations

Lähimmät sääasemat

Aseman sijainti Lämpötila Tuulen hyytävyys Kastepiste Ilmankosteus Tuuli Precip. Kork Päivitetty Tyyppi